Chalfant Valley, California
Current Conditions -  °F | °C
As of 3:56 PM on Saturday 25 Oct 2014 (Local Time) from KBIH Reporting Station
Clear Clear  
Wind Chill: 81°   Ceiling: Unl
Heat Index: 81°   Visibility: 10mi
Dew Point:   Wind: 12mph
Humidity: 5%   Direction: 210°SSW
Pressure: 29.93"   Gusts: NA
Location:  37.4772°N, 118.401°W
Report Text: KBIH 252256Z AUTO 21010KT 10SM CLR 27/M16 A2993 RMK AO2 SLP088 T02721156
Loading
Personal Weather Stations






























Interactive Weather Map
Tropical Storm Tracking
New forecast layout! Learn more

10-Day Weather Forecast

Advertisements
Track Severe Weather on mobile